Check out our new PWSWeather beta!
PWSweather.com
Personal Weather Stations
Station Observations
BAYPARK
Bay Park, Ny, East Rockaway, NY 11518

Bay Park, NyEast Rockaway, NY 11518

Lat: 40.6310098, Lon: -73.6727287

Elevation: 11

Station Type: AcuRite Pro

https://www.awekas.at/en/instrument.php?id=14894

High Low Average
Temperature 50.5°F10.3°C 34.2°F1.2°C 43.5°F6.4°C
Dew Point 46.2°F7.9°C 19.5°F-6.9°C 33.8°F1.0°C
Winds 13.2 mph 21.2 kmh 1.0 mph 1.6 kmh 7.0 mph W11.3 kmh W
Wind Gusts 22.2 mph35.7 kmh -- 10.0 mph16.1 kmh
Humidity 99% 43% 71%
Pressure 30.18 in1022.0 mb 29.83 in1010.2 mb -
Precipitation 0.02 in0.5 mm - -
Hour Temp Dew Point Humidity Winds Wind Gusts Pressure Precip Precip Rate Daily Precip Total
12:00 AM 45.1°F7.3°C 44.6°F7.0°C 98% 3.1 mph SW5.0 kmh SW 6.3 mph10.1 kmh 30.05 in1017.6 mb 0.00 in0.0 mm 0.00 in0.0 mm 0.00 in0.0 mm
12:05 AM 45.1°F7.3°C 44.6°F7.0°C 98% 2.6 mph SSW4.2 kmh SSW 4.7 mph7.6 kmh 30.05 in1017.6 mb 0.00 in0.0 mm 0.00 in0.0 mm 0.00 in0.0 mm
12:10 AM 45.1°F7.3°C 44.5°F6.9°C 98% 2.9 mph SSW4.7 kmh SSW 4.7 mph7.6 kmh 30.03 in1016.9 mb 0.00 in0.0 mm 0.00 in0.0 mm 0.00 in0.0 mm
12:15 AM 45.1°F7.3°C 44.3°F6.8°C 97% 3.0 mph SW4.8 kmh SW 5.3 mph8.5 kmh 30.03 in1016.9 mb 0.00 in0.0 mm 0.00 in0.0 mm 0.00 in0.0 mm
12:20 AM 45.3°F7.4°C 44.5°F6.9°C 97% 3.4 mph SW5.5 kmh SW 6.3 mph10.1 kmh 30.03 in1016.9 mb 0.00 in0.0 mm 0.00 in0.0 mm 0.00 in0.0 mm
12:25 AM 45.3°F7.4°C 44.5°F6.9°C 97% 3.4 mph SW5.5 kmh SW 5.3 mph8.5 kmh 30.03 in1016.9 mb 0.00 in0.0 mm 0.00 in0.0 mm 0.00 in0.0 mm
12:30 AM 45.3°F7.4°C 44.5°F6.9°C 97% 3.8 mph SW6.1 kmh SW 5.3 mph8.5 kmh 30.03 in1016.9 mb 0.00 in0.0 mm 0.00 in0.0 mm 0.00 in0.0 mm
12:35 AM 45.4°F7.4°C 44.6°F7.0°C 97% 4.0 mph SW6.4 kmh SW 6.3 mph10.1 kmh 30.03 in1016.9 mb 0.00 in0.0 mm 0.00 in0.0 mm 0.00 in0.0 mm
12:40 AM 45.5°F7.5°C 44.7°F7.1°C 97% 3.6 mph SW5.8 kmh SW 5.8 mph9.3 kmh 30.03 in1016.9 mb 0.00 in0.0 mm 0.00 in0.0 mm 0.00 in0.0 mm
12:45 AM 45.5°F7.5°C 44.7°F7.1°C 97% 3.4 mph SW5.5 kmh SW 5.8 mph9.3 kmh 30.01 in1016.3 mb 0.00 in0.0 mm 0.00 in0.0 mm 0.00 in0.0 mm
12:50 AM 45.5°F7.5°C 44.7°F7.1°C 97% 3.0 mph SW4.8 kmh SW 4.7 mph7.6 kmh 30.00 in1015.9 mb 0.00 in0.0 mm 0.00 in0.0 mm 0.00 in0.0 mm
12:55 AM 45.5°F7.5°C 44.7°F7.1°C 97% 3.6 mph SW5.8 kmh SW 6.8 mph10.9 kmh 30.00 in1015.9 mb 0.00 in0.0 mm 0.00 in0.0 mm 0.00 in0.0 mm
01:00 AM 45.5°F7.5°C 44.7°F7.1°C 97% 3.4 mph SW5.5 kmh SW 6.3 mph10.1 kmh 30.00 in1015.9 mb 0.00 in0.0 mm 0.00 in0.0 mm 0.00 in0.0 mm
01:05 AM 45.5°F7.5°C 44.7°F7.1°C 97% 4.0 mph SW6.4 kmh SW 6.3 mph10.1 kmh 30.00 in1015.9 mb 0.00 in0.0 mm 0.00 in0.0 mm 0.00 in0.0 mm
01:10 AM 45.5°F7.5°C 44.7°F7.1°C 97% 4.3 mph SW6.9 kmh SW 6.8 mph10.9 kmh 30.00 in1015.9 mb 0.00 in0.0 mm 0.00 in0.0 mm 0.00 in0.0 mm
01:15 AM 45.5°F7.5°C 44.7°F7.1°C 97% 3.7 mph WSW6.0 kmh WSW 6.3 mph10.1 kmh 30.00 in1015.9 mb 0.00 in0.0 mm 0.00 in0.0 mm 0.00 in0.0 mm
01:20 AM 45.5°F7.5°C 44.7°F7.1°C 97% 3.9 mph SW6.3 kmh SW 6.3 mph10.1 kmh 29.99 in1015.6 mb 0.00 in0.0 mm 0.00 in0.0 mm 0.00 in0.0 mm
01:25 AM 45.5°F7.5°C 44.7°F7.1°C 97% 4.3 mph SW6.9 kmh SW 6.8 mph10.9 kmh 29.99 in1015.6 mb 0.00 in0.0 mm 0.00 in0.0 mm 0.00 in0.0 mm
01:30 AM 45.5°F7.5°C 44.7°F7.1°C 97% 3.2 mph SW5.1 kmh SW 5.3 mph8.5 kmh 29.99 in1015.6 mb 0.00 in0.0 mm 0.00 in0.0 mm 0.00 in0.0 mm
01:35 AM 45.5°F7.5°C 44.7°F7.1°C 97% 3.6 mph SW5.8 kmh SW 5.3 mph8.5 kmh 29.99 in1015.6 mb 0.00 in0.0 mm 0.00 in0.0 mm 0.00 in0.0 mm
01:40 AM 45.6°F7.6°C 44.8°F7.1°C 97% 3.2 mph SW5.1 kmh SW 4.7 mph7.6 kmh 29.99 in1015.6 mb 0.00 in0.0 mm 0.00 in0.0 mm 0.00 in0.0 mm
01:45 AM 45.7°F7.6°C 45.0°F7.2°C 97% 2.9 mph SW4.7 kmh SW 4.7 mph7.6 kmh 29.98 in1015.2 mb 0.00 in0.0 mm 0.00 in0.0 mm 0.00 in0.0 mm
01:50 AM 45.7°F7.6°C 45.2°F7.3°C 98% 2.9 mph SSW4.7 kmh SSW 4.7 mph7.6 kmh 29.98 in1015.2 mb 0.00 in0.0 mm 0.00 in0.0 mm 0.00 in0.0 mm
01:55 AM 45.7°F7.6°C 45.2°F7.3°C 98% 2.5 mph SSW4.0 kmh SSW 5.3 mph8.5 kmh 29.97 in1014.9 mb 0.00 in0.0 mm 0.00 in0.0 mm 0.00 in0.0 mm
02:00 AM 45.7°F7.6°C 45.2°F7.3°C 98% 2.6 mph SW4.2 kmh SW 5.3 mph8.5 kmh 29.96 in1014.6 mb 0.00 in0.0 mm 0.00 in0.0 mm 0.00 in0.0 mm
02:05 AM 45.7°F7.6°C 45.2°F7.3°C 98% 3.6 mph SW5.8 kmh SW 8.3 mph13.4 kmh 29.96 in1014.6 mb 0.00 in0.0 mm 0.00 in0.0 mm 0.00 in0.0 mm
02:10 AM 45.7°F7.6°C 45.2°F7.3°C 98% 3.6 mph WSW5.8 kmh WSW 7.8 mph12.6 kmh 29.96 in1014.6 mb 0.00 in0.0 mm 0.00 in0.0 mm 0.00 in0.0 mm
02:15 AM 45.7°F7.6°C 45.2°F7.3°C 98% 2.6 mph SW4.2 kmh SW 4.2 mph6.8 kmh 29.96 in1014.6 mb 0.00 in0.0 mm 0.00 in0.0 mm 0.00 in0.0 mm
02:20 AM 45.7°F7.6°C 45.2°F7.3°C 98% 2.3 mph SSW3.7 kmh SSW 4.2 mph6.8 kmh 29.96 in1014.6 mb 0.00 in0.0 mm 0.00 in0.0 mm 0.00 in0.0 mm
02:25 AM 45.7°F7.6°C 45.2°F7.3°C 98% 2.7 mph SSW4.3 kmh SSW 4.7 mph7.6 kmh 29.95 in1014.2 mb 0.00 in0.0 mm 0.00 in0.0 mm 0.00 in0.0 mm
02:30 AM 45.7°F7.6°C 45.2°F7.3°C 98% 2.5 mph S4.0 kmh S 5.3 mph8.5 kmh 29.95 in1014.2 mb 0.01 in0.3 mm 0.12 in3.0 mm 0.01 in0.3 mm
02:35 AM 45.7°F7.6°C 45.2°F7.3°C 98% 2.2 mph SSW3.5 kmh SSW 3.7 mph6.0 kmh 29.94 in1013.9 mb 0.01 in0.3 mm 0.00 in0.0 mm 0.01 in0.3 mm
02:40 AM 45.7°F7.6°C 45.2°F7.3°C 98% 1.9 mph SSW3.1 kmh SSW 3.7 mph6.0 kmh 29.94 in1013.9 mb 0.01 in0.3 mm 0.00 in0.0 mm 0.01 in0.3 mm
02:45 AM 45.7°F7.6°C 45.2°F7.3°C 98% 2.7 mph S4.3 kmh S 4.2 mph6.8 kmh 29.94 in1013.9 mb 0.01 in0.3 mm 0.00 in0.0 mm 0.01 in0.3 mm
02:50 AM 45.9°F7.7°C 45.4°F7.4°C 98% 2.7 mph SSW4.3 kmh SSW 4.2 mph6.8 kmh 29.94 in1013.9 mb 0.01 in0.3 mm 0.00 in0.0 mm 0.01 in0.3 mm
02:55 AM 45.9°F7.7°C 45.4°F7.4°C 98% 2.5 mph SSW4.0 kmh SSW 5.8 mph9.3 kmh 29.94 in1013.9 mb 0.01 in0.3 mm 0.00 in0.0 mm 0.01 in0.3 mm
03:00 AM 45.9°F7.7°C 45.4°F7.4°C 98% 1.9 mph S3.1 kmh S 4.2 mph6.8 kmh 29.93 in1013.5 mb 0.01 in0.3 mm 0.00 in0.0 mm 0.01 in0.3 mm
03:05 AM 45.9°F7.7°C 45.4°F7.4°C 98% 1.9 mph S3.1 kmh S 3.7 mph6.0 kmh 29.93 in1013.5 mb 0.02 in0.5 mm 0.12 in3.0 mm 0.02 in0.5 mm
03:10 AM 45.9°F7.7°C 45.4°F7.4°C 98% 2.7 mph SW4.3 kmh SW 4.2 mph6.8 kmh 29.92 in1013.2 mb 0.02 in0.5 mm 0.00 in0.0 mm 0.02 in0.5 mm
03:15 AM 45.9°F7.7°C 45.4°F7.4°C 98% 3.3 mph S5.3 kmh S 4.7 mph7.6 kmh 29.91 in1012.9 mb 0.02 in0.5 mm 0.00 in0.0 mm 0.02 in0.5 mm
03:20 AM 45.9°F7.7°C 45.4°F7.4°C 98% 2.5 mph SW4.0 kmh SW 4.7 mph7.6 kmh 29.90 in1012.5 mb 0.02 in0.5 mm 0.00 in0.0 mm 0.02 in0.5 mm
03:25 AM 45.9°F7.7°C 45.4°F7.4°C 98% 2.6 mph SSW4.2 kmh SSW 4.7 mph7.6 kmh 29.89 in1012.2 mb 0.02 in0.5 mm 0.00 in0.0 mm 0.02 in0.5 mm
03:30 AM 46.0°F7.8°C 45.4°F7.4°C 98% 2.7 mph S4.3 kmh S 3.2 mph5.1 kmh 29.89 in1012.2 mb 0.01 in0.3 mm 0.00 in0.0 mm 0.02 in0.5 mm
03:35 AM 46.0°F7.8°C 45.5°F7.5°C 98% 2.6 mph SW4.2 kmh SW 3.2 mph5.1 kmh 29.89 in1012.2 mb 0.01 in0.3 mm 0.00 in0.0 mm 0.02 in0.5 mm
03:40 AM 46.0°F7.8°C 45.5°F7.5°C 98% 2.5 mph SW4.0 kmh SW 4.2 mph6.8 kmh 29.89 in1012.2 mb 0.01 in0.3 mm 0.00 in0.0 mm 0.02 in0.5 mm
03:45 AM 46.0°F7.8°C 45.5°F7.5°C 98% 2.9 mph SW4.7 kmh SW 5.8 mph9.3 kmh 29.89 in1012.2 mb 0.01 in0.3 mm 0.00 in0.0 mm 0.02 in0.5 mm
03:50 AM 46.0°F7.8°C 45.5°F7.5°C 98% 3.1 mph SSW5.0 kmh SSW 6.3 mph10.1 kmh 29.89 in1012.2 mb 0.01 in0.3 mm 0.00 in0.0 mm 0.02 in0.5 mm
03:55 AM 46.0°F7.8°C 45.5°F7.5°C 98% 2.2 mph SW3.5 kmh SW 3.7 mph6.0 kmh 29.89 in1012.2 mb 0.01 in0.3 mm 0.00 in0.0 mm 0.02 in0.5 mm
04:00 AM 46.0°F7.8°C 45.5°F7.5°C 98% 2.4 mph SW3.9 kmh SW 3.7 mph6.0 kmh 29.87 in1011.5 mb 0.01 in0.3 mm 0.00 in0.0 mm 0.02 in0.5 mm
04:05 AM 46.0°F7.8°C 45.5°F7.5°C 98% 2.6 mph SW4.2 kmh SW 4.2 mph6.8 kmh 29.87 in1011.5 mb 0.00 in0.0 mm 0.00 in0.0 mm 0.02 in0.5 mm
04:10 AM 46.0°F7.8°C 45.5°F7.5°C 98% 3.6 mph SW5.8 kmh SW 5.8 mph9.3 kmh 29.87 in1011.5 mb 0.00 in0.0 mm 0.00 in0.0 mm 0.02 in0.5 mm
04:15 AM 46.2°F7.9°C 45.6°F7.6°C 98% 3.0 mph SW4.8 kmh SW 5.3 mph8.5 kmh 29.87 in1011.5 mb 0.00 in0.0 mm 0.00 in0.0 mm 0.02 in0.5 mm
04:20 AM 46.2°F7.9°C 45.9°F7.7°C 99% 3.9 mph SW6.3 kmh SW 6.3 mph10.1 kmh 29.87 in1011.5 mb 0.00 in0.0 mm 0.00 in0.0 mm 0.02 in0.5 mm
04:25 AM 46.2°F7.9°C 45.9°F7.7°C 99% 2.9 mph WSW4.7 kmh WSW 5.3 mph8.5 kmh 29.87 in1011.5 mb 0.00 in0.0 mm 0.00 in0.0 mm 0.02 in0.5 mm
04:30 AM 46.2°F7.9°C 45.9°F7.7°C 99% 4.0 mph SW6.4 kmh SW 5.8 mph9.3 kmh 29.87 in1011.5 mb 0.00 in0.0 mm 0.00 in0.0 mm 0.02 in0.5 mm
04:35 AM 46.2°F7.9°C 45.9°F7.7°C 99% 3.9 mph SW6.3 kmh SW 7.8 mph12.6 kmh 29.86 in1011.2 mb 0.00 in0.0 mm 0.00 in0.0 mm 0.02 in0.5 mm
04:40 AM 46.2°F7.9°C 45.9°F7.7°C 99% 3.5 mph SW5.6 kmh SW 6.3 mph10.1 kmh 29.86 in1011.2 mb 0.00 in0.0 mm 0.00 in0.0 mm 0.02 in0.5 mm
04:45 AM 46.2°F7.9°C 45.9°F7.7°C 99% 3.0 mph SW4.8 kmh SW 5.3 mph8.5 kmh 29.86 in1011.2 mb 0.00 in0.0 mm 0.00 in0.0 mm 0.02 in0.5 mm
04:50 AM 46.2°F7.9°C 45.9°F7.7°C 99% 2.9 mph WSW4.7 kmh WSW 5.8 mph9.3 kmh 29.86 in1011.2 mb 0.00 in0.0 mm 0.00 in0.0 mm 0.02 in0.5 mm
04:55 AM 46.2°F7.9°C 45.9°F7.7°C 99% 3.4 mph SW5.5 kmh SW 5.8 mph9.3 kmh 29.85 in1010.8 mb 0.00 in0.0 mm 0.00 in0.0 mm 0.02 in0.5 mm
05:00 AM 46.2°F7.9°C 45.9°F7.7°C 99% 3.3 mph SW5.3 kmh SW 6.3 mph10.1 kmh 29.85 in1010.8 mb 0.00 in0.0 mm 0.00 in0.0 mm 0.02 in0.5 mm
05:05 AM 46.2°F7.9°C 45.9°F7.7°C 99% 2.6 mph W4.2 kmh W 4.7 mph7.6 kmh 29.85 in1010.8 mb 0.00 in0.0 mm 0.00 in0.0 mm 0.02 in0.5 mm
05:10 AM 46.2°F7.9°C 45.9°F7.7°C 99% 3.0 mph WSW4.8 kmh WSW 4.7 mph7.6 kmh 29.86 in1011.2 mb 0.00 in0.0 mm 0.00 in0.0 mm 0.02 in0.5 mm
05:15 AM 46.2°F7.9°C 45.9°F7.7°C 99% 2.8 mph W4.5 kmh W 5.3 mph8.5 kmh 29.86 in1011.2 mb 0.00 in0.0 mm 0.00 in0.0 mm 0.02 in0.5 mm
05:20 AM 46.2°F7.9°C 45.9°F7.7°C 99% 2.7 mph W4.3 kmh W 4.7 mph7.6 kmh 29.86 in1011.2 mb 0.00 in0.0 mm 0.00 in0.0 mm 0.02 in0.5 mm
05:25 AM 46.1°F7.8°C 45.9°F7.7°C 99% 2.3 mph W3.7 kmh W 3.7 mph6.0 kmh 29.86 in1011.2 mb 0.00 in0.0 mm 0.00 in0.0 mm 0.02 in0.5 mm
05:30 AM 46.0°F7.8°C 45.7°F7.6°C 99% 1.8 mph W2.9 kmh W 3.7 mph6.0 kmh 29.86 in1011.2 mb 0.00 in0.0 mm 0.00 in0.0 mm 0.02 in0.5 mm
05:35 AM 46.0°F7.8°C 45.7°F7.6°C 99% 2.3 mph W3.7 kmh W 3.2 mph5.1 kmh 29.86 in1011.2 mb 0.00 in0.0 mm 0.00 in0.0 mm 0.02 in0.5 mm
05:40 AM 45.9°F7.7°C 45.6°F7.6°C 99% 1.5 mph W2.4 kmh W 3.2 mph5.1 kmh 29.86 in1011.2 mb 0.00 in0.0 mm 0.00 in0.0 mm 0.02 in0.5 mm
05:45 AM 45.8°F7.7°C 45.5°F7.5°C 99% 3.0 mph WSW4.8 kmh WSW 5.3 mph8.5 kmh 29.84 in1010.5 mb 0.00 in0.0 mm 0.00 in0.0 mm 0.02 in0.5 mm
05:50 AM 45.6°F7.6°C 45.3°F7.4°C 99% 1.8 mph W2.9 kmh W 3.7 mph6.0 kmh 29.83 in1010.2 mb 0.00 in0.0 mm 0.00 in0.0 mm 0.02 in0.5 mm
05:55 AM 45.5°F7.5°C 45.2°F7.3°C 99% 2.6 mph W4.2 kmh W 4.2 mph6.8 kmh 29.83 in1010.2 mb 0.00 in0.0 mm 0.00 in0.0 mm 0.02 in0.5 mm
06:00 AM 45.5°F7.5°C 45.2°F7.3°C 99% 2.2 mph W3.5 kmh W 4.2 mph6.8 kmh 29.84 in1010.5 mb 0.00 in0.0 mm 0.00 in0.0 mm 0.02 in0.5 mm
06:05 AM 45.3°F7.4°C 44.8°F7.1°C 98% 2.0 mph NW3.2 kmh NW 4.2 mph6.8 kmh 29.84 in1010.5 mb 0.00 in0.0 mm 0.00 in0.0 mm 0.02 in0.5 mm
06:10 AM 45.3°F7.4°C 44.8°F7.1°C 98% 1.5 mph W2.4 kmh W 3.2 mph5.1 kmh 29.84 in1010.5 mb 0.00 in0.0 mm 0.00 in0.0 mm 0.02 in0.5 mm
06:15 AM 45.3°F7.4°C 44.8°F7.1°C 98% 1.3 mph NW2.1 kmh NW 3.2 mph5.1 kmh 29.84 in1010.5 mb 0.00 in0.0 mm 0.00 in0.0 mm 0.02 in0.5 mm
06:20 AM 45.3°F7.4°C 44.8°F7.1°C 98% 1.0 mph WNW1.6 kmh WNW 2.7 mph4.3 kmh 29.83 in1010.2 mb 0.00 in0.0 mm 0.00 in0.0 mm 0.02 in0.5 mm
06:25 AM 45.2°F7.3°C 44.6°F7.0°C 98% 2.4 mph WNW3.9 kmh WNW 4.2 mph6.8 kmh 29.83 in1010.2 mb 0.00 in0.0 mm 0.00 in0.0 mm 0.02 in0.5 mm
06:30 AM 45.1°F7.3°C 44.6°F7.0°C 98% 2.0 mph W3.2 kmh W 4.2 mph6.8 kmh 29.83 in1010.2 mb 0.00 in0.0 mm 0.00 in0.0 mm 0.02 in0.5 mm
06:35 AM 45.1°F7.3°C 44.5°F6.9°C 98% 3.1 mph WNW5.0 kmh WNW 5.8 mph9.3 kmh 29.84 in1010.5 mb 0.00 in0.0 mm 0.00 in0.0 mm 0.02 in0.5 mm
06:40 AM 45.1°F7.3°C 44.3°F6.8°C 97% 3.1 mph W5.0 kmh W 5.8 mph9.3 kmh 29.84 in1010.5 mb 0.00 in0.0 mm 0.00 in0.0 mm 0.02 in0.5 mm
06:45 AM 45.1°F7.3°C 44.3°F6.8°C 97% 3.4 mph W5.5 kmh W 4.7 mph7.6 kmh 29.84 in1010.5 mb 0.00 in0.0 mm 0.00 in0.0 mm 0.02 in0.5 mm
06:50 AM 45.1°F7.3°C 44.3°F6.8°C 97% 3.7 mph W6.0 kmh W 6.8 mph10.9 kmh 29.84 in1010.5 mb 0.00 in0.0 mm 0.00 in0.0 mm 0.02 in0.5 mm
06:55 AM 45.1°F7.3°C 44.3°F6.8°C 97% 3.3 mph NW5.3 kmh NW 6.3 mph10.1 kmh 29.84 in1010.5 mb 0.00 in0.0 mm 0.00 in0.0 mm 0.02 in0.5 mm
07:00 AM 45.1°F7.3°C 44.3°F6.8°C 97% 3.9 mph W6.3 kmh W 7.3 mph11.7 kmh 29.84 in1010.5 mb 0.00 in0.0 mm 0.00 in0.0 mm 0.02 in0.5 mm
07:05 AM 45.1°F7.3°C 44.3°F6.8°C 97% 4.0 mph W6.4 kmh W 5.8 mph9.3 kmh 29.84 in1010.5 mb 0.00 in0.0 mm 0.00 in0.0 mm 0.02 in0.5 mm
07:10 AM 45.1°F7.3°C 44.3°F6.8°C 97% 4.3 mph NW6.9 kmh NW 6.8 mph10.9 kmh 29.84 in1010.5 mb 0.00 in0.0 mm 0.00 in0.0 mm 0.02 in0.5 mm
07:15 AM 45.1°F7.3°C 44.0°F6.7°C 96% 3.9 mph WNW6.3 kmh WNW 6.8 mph10.9 kmh 29.84 in1010.5 mb 0.00 in0.0 mm 0.00 in0.0 mm 0.02 in0.5 mm
07:20 AM 45.1°F7.3°C 44.0°F6.7°C 96% 3.8 mph W6.1 kmh W 5.8 mph9.3 kmh 29.84 in1010.5 mb 0.00 in0.0 mm 0.00 in0.0 mm 0.02 in0.5 mm
07:25 AM 45.1°F7.3°C 44.0°F6.7°C 96% 4.7 mph W7.6 kmh W 7.8 mph12.6 kmh 29.84 in1010.5 mb 0.00 in0.0 mm 0.00 in0.0 mm 0.02 in0.5 mm
07:30 AM 45.1°F7.3°C 44.0°F6.7°C 96% 2.6 mph W4.2 kmh W 4.2 mph6.8 kmh 29.84 in1010.5 mb 0.00 in0.0 mm 0.00 in0.0 mm 0.02 in0.5 mm
07:35 AM 45.1°F7.3°C 44.0°F6.7°C 96% 3.5 mph WNW5.6 kmh WNW 5.3 mph8.5 kmh 29.84 in1010.5 mb 0.00 in0.0 mm 0.00 in0.0 mm 0.02 in0.5 mm
07:40 AM 45.1°F7.3°C 44.0°F6.7°C 96% 4.0 mph WNW6.4 kmh WNW 6.8 mph10.9 kmh 29.84 in1010.5 mb 0.00 in0.0 mm 0.00 in0.0 mm 0.02 in0.5 mm
07:45 AM 45.1°F7.3°C 44.0°F6.7°C 96% 3.3 mph WNW5.3 kmh WNW 5.3 mph8.5 kmh 29.84 in1010.5 mb 0.00 in0.0 mm 0.00 in0.0 mm 0.02 in0.5 mm
07:50 AM 45.1°F7.3°C 44.1°F6.7°C 96% 3.6 mph WNW5.8 kmh WNW 5.3 mph8.5 kmh 29.84 in1010.5 mb 0.00 in0.0 mm 0.00 in0.0 mm 0.02 in0.5 mm
07:55 AM 45.3°F7.4°C 44.5°F6.9°C 97% 4.0 mph W6.4 kmh W 5.8 mph9.3 kmh 29.84 in1010.5 mb 0.00 in0.0 mm 0.00 in0.0 mm 0.02 in0.5 mm
08:00 AM 45.4°F7.4°C 44.6°F7.0°C 97% 4.0 mph NW6.4 kmh NW 6.3 mph10.1 kmh 29.84 in1010.5 mb 0.00 in0.0 mm 0.00 in0.0 mm 0.02 in0.5 mm
08:05 AM 46.0°F7.8°C 45.2°F7.3°C 97% 4.8 mph W7.7 kmh W 8.3 mph13.4 kmh 29.84 in1010.5 mb 0.00 in0.0 mm 0.00 in0.0 mm 0.02 in0.5 mm
08:10 AM 46.8°F8.2°C 45.7°F7.6°C 96% 6.1 mph WNW9.8 kmh WNW 7.8 mph12.6 kmh 29.84 in1010.5 mb 0.00 in0.0 mm 0.00 in0.0 mm 0.02 in0.5 mm
08:15 AM 47.1°F8.4°C 45.8°F7.7°C 95% 5.6 mph WNW9.0 kmh WNW 7.8 mph12.6 kmh 29.84 in1010.5 mb 0.00 in0.0 mm 0.00 in0.0 mm 0.02 in0.5 mm
08:20 AM 47.7°F8.7°C 46.0°F7.8°C 94% 5.4 mph WNW8.7 kmh WNW 8.3 mph13.4 kmh 29.84 in1010.5 mb 0.00 in0.0 mm 0.00 in0.0 mm 0.02 in0.5 mm
08:25 AM 48.1°F8.9°C 46.1°F7.8°C 93% 5.6 mph W9.0 kmh W 7.3 mph11.7 kmh 29.84 in1010.5 mb 0.00 in0.0 mm 0.00 in0.0 mm 0.02 in0.5 mm
08:30 AM 48.5°F9.2°C 46.2°F7.9°C 92% 5.4 mph WNW8.7 kmh WNW 8.3 mph13.4 kmh 29.84 in1010.5 mb 0.00 in0.0 mm 0.00 in0.0 mm 0.02 in0.5 mm
08:35 AM 48.8°F9.3°C 46.2°F7.9°C 90% 6.2 mph W10.0 kmh W 8.9 mph14.3 kmh 29.84 in1010.5 mb 0.00 in0.0 mm 0.00 in0.0 mm 0.02 in0.5 mm
08:40 AM 49.3°F9.6°C 46.1°F7.8°C 88% 7.9 mph WNW12.7 kmh WNW 11.4 mph18.3 kmh 29.84 in1010.5 mb 0.00 in0.0 mm 0.00 in0.0 mm 0.02 in0.5 mm
08:45 AM 49.5°F9.7°C 45.8°F7.7°C 87% 7.8 mph W12.6 kmh W 11.4 mph18.3 kmh 29.84 in1010.5 mb 0.00 in0.0 mm 0.00 in0.0 mm 0.02 in0.5 mm
08:50 AM 49.7°F9.8°C 45.9°F7.7°C 87% 7.9 mph W12.7 kmh W 13.0 mph20.9 kmh 29.84 in1010.5 mb 0.00 in0.0 mm 0.00 in0.0 mm 0.02 in0.5 mm
08:55 AM 49.9°F9.9°C 45.7°F7.6°C 85% 7.7 mph W12.4 kmh W 9.9 mph15.9 kmh 29.84 in1010.5 mb 0.00 in0.0 mm 0.00 in0.0 mm 0.02 in0.5 mm
09:00 AM 50.0°F10.0°C 45.6°F7.6°C 85% 7.8 mph W12.6 kmh W 11.4 mph18.3 kmh 29.85 in1010.8 mb 0.00 in0.0 mm 0.00 in0.0 mm 0.02 in0.5 mm
09:05 AM 50.1°F10.1°C 45.2°F7.3°C 83% 9.6 mph WNW15.4 kmh WNW 13.0 mph20.9 kmh 29.85 in1010.8 mb 0.00 in0.0 mm 0.00 in0.0 mm 0.02 in0.5 mm
09:10 AM 50.2°F10.1°C 45.2°F7.3°C 83% 6.8 mph W10.9 kmh W 8.3 mph13.4 kmh 29.86 in1011.2 mb 0.00 in0.0 mm 0.00 in0.0 mm 0.02 in0.5 mm
09:15 AM 50.2°F10.1°C 45.0°F7.2°C 82% 9.3 mph WNW15.0 kmh WNW 14.5 mph23.3 kmh 29.86 in1011.2 mb 0.00 in0.0 mm 0.00 in0.0 mm 0.02 in0.5 mm
09:20 AM 50.5°F10.3°C 45.0°F7.2°C 81% 8.3 mph WNW13.4 kmh WNW 13.5 mph21.7 kmh 29.86 in1011.2 mb 0.00 in0.0 mm 0.00 in0.0 mm 0.02 in0.5 mm
09:25 AM 50.2°F10.1°C 44.8°F7.1°C 82% 9.6 mph NW15.4 kmh NW 14.5 mph23.3 kmh 29.86 in1011.2 mb 0.00 in0.0 mm 0.00 in0.0 mm 0.02 in0.5 mm
09:30 AM 48.8°F9.3°C 42.4°F5.8°C 79% 10.8 mph WNW17.4 kmh WNW 16.1 mph25.9 kmh 29.86 in1011.2 mb 0.00 in0.0 mm 0.00 in0.0 mm 0.02 in0.5 mm
09:35 AM 48.1°F8.9°C 42.2°F5.7°C 80% 6.8 mph WNW10.9 kmh WNW 11.9 mph19.2 kmh 29.88 in1011.9 mb 0.00 in0.0 mm 0.00 in0.0 mm 0.02 in0.5 mm
09:40 AM 48.0°F8.9°C 42.4°F5.8°C 81% 4.8 mph W7.7 kmh W 8.3 mph13.4 kmh 29.88 in1011.9 mb 0.00 in0.0 mm 0.00 in0.0 mm 0.02 in0.5 mm
09:45 AM 48.0°F8.9°C 40.2°F4.6°C 74% 7.4 mph W11.9 kmh W 17.1 mph27.5 kmh 29.89 in1012.2 mb 0.00 in0.0 mm 0.00 in0.0 mm 0.02 in0.5 mm
09:50 AM 48.5°F9.2°C 37.1°F2.8°C 65% 12.9 mph WNW20.8 kmh WNW 18.1 mph29.1 kmh 29.89 in1012.2 mb 0.00 in0.0 mm 0.00 in0.0 mm 0.02 in0.5 mm
09:55 AM 48.9°F9.4°C 33.2°F0.7°C 54% 12.5 mph W20.1 kmh W 19.1 mph30.7 kmh 29.89 in1012.2 mb 0.00 in0.0 mm 0.00 in0.0 mm 0.02 in0.5 mm
10:00 AM 49.2°F9.6°C 31.7°F-0.2°C 51% 10.8 mph NW17.4 kmh NW 14.5 mph23.3 kmh 29.89 in1012.2 mb 0.00 in0.0 mm 0.00 in0.0 mm 0.02 in0.5 mm
10:05 AM 49.4°F9.7°C 30.2°F-1.0°C 47% 12.5 mph NW20.1 kmh NW 19.7 mph31.7 kmh 29.89 in1012.2 mb 0.00 in0.0 mm 0.00 in0.0 mm 0.02 in0.5 mm
10:10 AM 49.5°F9.7°C 30.1°F-1.1°C 47% 13.2 mph WNW21.2 kmh WNW 18.6 mph29.9 kmh 29.89 in1012.2 mb 0.00 in0.0 mm 0.00 in0.0 mm 0.02 in0.5 mm
10:15 AM 49.3°F9.6°C 30.4°F-0.9°C 48% 10.7 mph NW17.2 kmh NW 17.1 mph27.5 kmh 29.89 in1012.2 mb 0.00 in0.0 mm 0.00 in0.0 mm 0.02 in0.5 mm
10:20 AM 49.5°F9.7°C 30.6°F-0.8°C 48% 13.1 mph WNW21.1 kmh WNW 20.7 mph33.3 kmh 29.89 in1012.2 mb 0.00 in0.0 mm 0.00 in0.0 mm 0.02 in0.5 mm
10:25 AM 49.1°F9.5°C 30.7°F-0.7°C 49% 9.7 mph WNW15.6 kmh WNW 14.0 mph22.5 kmh 29.90 in1012.5 mb 0.00 in0.0 mm 0.00 in0.0 mm 0.02 in0.5 mm
10:30 AM 48.8°F9.3°C 30.6°F-0.8°C 49% 10.8 mph WNW17.4 kmh WNW 18.1 mph29.1 kmh 29.90 in1012.5 mb 0.00 in0.0 mm 0.00 in0.0 mm 0.02 in0.5 mm
10:35 AM 49.0°F9.4°C 30.8°F-0.7°C 49% 9.8 mph W15.8 kmh W 19.7 mph31.7 kmh 29.91 in1012.9 mb 0.00 in0.0 mm 0.00 in0.0 mm 0.02 in0.5 mm
10:40 AM 49.6°F9.8°C 30.8°F-0.7°C 48% 9.9 mph WNW15.9 kmh WNW 16.6 mph26.7 kmh 29.91 in1012.9 mb 0.00 in0.0 mm 0.00 in0.0 mm 0.02 in0.5 mm
10:45 AM 49.8°F9.9°C 31.5°F-0.3°C 49% 8.3 mph W13.4 kmh W 13.5 mph21.7 kmh 29.90 in1012.5 mb 0.00 in0.0 mm 0.00 in0.0 mm 0.02 in0.5 mm
10:50 AM 49.4°F9.7°C 31.4°F-0.3°C 50% 11.4 mph W18.3 kmh W 15.5 mph24.9 kmh 29.90 in1012.5 mb 0.00 in0.0 mm 0.00 in0.0 mm 0.02 in0.5 mm
10:55 AM 49.1°F9.5°C 30.5°F-0.8°C 49% 11.5 mph WNW18.5 kmh WNW 14.0 mph22.5 kmh 29.90 in1012.5 mb 0.00 in0.0 mm 0.00 in0.0 mm 0.02 in0.5 mm
11:00 AM 49.5°F9.7°C 30.0°F-1.1°C 47% 10.4 mph NW16.7 kmh NW 17.6 mph28.3 kmh 29.90 in1012.5 mb 0.00 in0.0 mm 0.00 in0.0 mm 0.02 in0.5 mm
11:05 AM 49.9°F9.9°C 30.5°F-0.8°C 47% 9.5 mph WNW15.3 kmh WNW 18.6 mph29.9 kmh 29.90 in1012.5 mb 0.00 in0.0 mm 0.00 in0.0 mm 0.02 in0.5 mm
11:10 AM 50.2°F10.1°C 30.6°F-0.8°C 47% 11.3 mph WSW18.2 kmh WSW 14.5 mph23.3 kmh 29.90 in1012.5 mb 0.00 in0.0 mm 0.00 in0.0 mm 0.02 in0.5 mm
11:15 AM 50.4°F10.2°C 31.1°F-0.5°C 47% 11.9 mph W19.2 kmh W 15.0 mph24.1 kmh 29.90 in1012.5 mb 0.00 in0.0 mm 0.00 in0.0 mm 0.02 in0.5 mm
11:20 AM 49.8°F9.9°C 30.9°F-0.6°C 48% 9.8 mph W15.8 kmh W 14.5 mph23.3 kmh 29.90 in1012.5 mb 0.00 in0.0 mm 0.00 in0.0 mm 0.02 in0.5 mm
11:25 AM 49.6°F9.8°C 30.9°F-0.6°C 48% 10.3 mph W16.6 kmh W 15.5 mph24.9 kmh 29.90 in1012.5 mb 0.00 in0.0 mm 0.00 in0.0 mm 0.02 in0.5 mm
11:30 AM 49.2°F9.6°C 30.4°F-0.9°C 48% 12.3 mph WNW19.8 kmh WNW 17.6 mph28.3 kmh 29.90 in1012.5 mb 0.00 in0.0 mm 0.00 in0.0 mm 0.02 in0.5 mm
11:35 AM 48.8°F9.3°C 30.0°F-1.1°C 48% 10.0 mph NW16.1 kmh NW 15.5 mph24.9 kmh 29.89 in1012.2 mb 0.00 in0.0 mm 0.00 in0.0 mm 0.02 in0.5 mm
11:40 AM 48.6°F9.2°C 30.4°F-0.9°C 49% 6.9 mph NW11.1 kmh NW 10.4 mph16.7 kmh 29.89 in1012.2 mb 0.00 in0.0 mm 0.00 in0.0 mm 0.02 in0.5 mm
11:45 AM 48.6°F9.2°C 30.8°F-0.7°C 50% 6.0 mph W9.7 kmh W 12.5 mph20.1 kmh 29.90 in1012.5 mb 0.00 in0.0 mm 0.00 in0.0 mm 0.02 in0.5 mm
11:50 AM 48.5°F9.2°C 30.5°F-0.8°C 50% 9.1 mph NW14.6 kmh NW 15.5 mph24.9 kmh 29.90 in1012.5 mb 0.00 in0.0 mm 0.00 in0.0 mm 0.02 in0.5 mm
11:55 AM 48.6°F9.2°C 30.3°F-0.9°C 49% 8.7 mph W14.0 kmh W 11.9 mph19.2 kmh 29.90 in1012.5 mb 0.00 in0.0 mm 0.00 in0.0 mm 0.02 in0.5 mm
12:00 PM -- -- - - N N -- -- 0.00 in0.0 mm 0.00 in0.0 mm 0.02 in0.5 mm
12:05 PM 48.2°F9.0°C 28.9°F-1.7°C 47% 8.5 mph WNW13.7 kmh WNW 11.9 mph19.2 kmh 29.89 in1012.2 mb 0.00 in0.0 mm 0.00 in0.0 mm 0.02 in0.5 mm
12:10 PM 47.9°F8.8°C 28.1°F-2.2°C 46% 10.1 mph NW16.3 kmh NW 20.2 mph32.5 kmh 29.89 in1012.2 mb 0.00 in0.0 mm 0.00 in0.0 mm 0.02 in0.5 mm
12:15 PM 47.7°F8.7°C 26.9°F-2.8°C 44% 11.4 mph WSW18.3 kmh WSW 22.2 mph35.7 kmh 29.89 in1012.2 mb 0.00 in0.0 mm 0.00 in0.0 mm 0.02 in0.5 mm
12:20 PM 47.7°F8.7°C 27.3°F-2.6°C 45% 7.9 mph WNW12.7 kmh WNW 13.0 mph20.9 kmh 29.89 in1012.2 mb 0.00 in0.0 mm 0.00 in0.0 mm 0.02 in0.5 mm
12:25 PM 47.7°F8.7°C 27.5°F-2.5°C 45% 7.8 mph NW12.6 kmh NW 13.0 mph20.9 kmh 29.89 in1012.2 mb 0.00 in0.0 mm 0.00 in0.0 mm 0.02 in0.5 mm
12:30 PM 47.7°F8.7°C 28.0°F-2.2°C 46% 11.2 mph NW18.0 kmh NW 14.5 mph23.3 kmh 29.89 in1012.2 mb 0.00 in0.0 mm 0.00 in0.0 mm 0.02 in0.5 mm
12:35 PM 47.8°F8.8°C 27.4°F-2.6°C 45% 9.6 mph NW15.4 kmh NW 14.0 mph22.5 kmh 29.88 in1011.9 mb 0.00 in0.0 mm 0.00 in0.0 mm 0.02 in0.5 mm
12:40 PM 48.0°F8.9°C 27.1°F-2.7°C 44% 10.3 mph W16.6 kmh W 15.5 mph24.9 kmh 29.88 in1011.9 mb 0.00 in0.0 mm 0.00 in0.0 mm 0.02 in0.5 mm
12:45 PM 47.9°F8.8°C 26.7°F-2.9°C 43% 11.0 mph W17.7 kmh W 18.6 mph29.9 kmh 29.88 in1011.9 mb 0.00 in0.0 mm 0.00 in0.0 mm 0.02 in0.5 mm
12:50 PM 47.7°F8.7°C 26.1°F-3.3°C 43% 11.9 mph NW19.2 kmh NW 17.6 mph28.3 kmh 29.88 in1011.9 mb 0.00 in0.0 mm 0.00 in0.0 mm 0.02 in0.5 mm
12:55 PM 47.4°F8.6°C 26.0°F-3.3°C 43% 10.0 mph NW16.1 kmh NW 17.6 mph28.3 kmh 29.88 in1011.9 mb 0.00 in0.0 mm 0.00 in0.0 mm 0.02 in0.5 mm
01:00 PM 47.2°F8.4°C 25.9°F-3.4°C 43% 11.8 mph NW19.0 kmh NW 15.0 mph24.1 kmh 29.87 in1011.5 mb 0.00 in0.0 mm 0.00 in0.0 mm 0.02 in0.5 mm
01:05 PM 46.8°F8.2°C 25.8°F-3.4°C 44% 10.1 mph NW16.3 kmh NW 15.5 mph24.9 kmh 29.87 in1011.5 mb 0.00 in0.0 mm 0.00 in0.0 mm 0.02 in0.5 mm
01:10 PM 47.0°F8.3°C 26.7°F-2.9°C 45% 8.5 mph W13.7 kmh W 11.4 mph18.3 kmh 29.87 in1011.5 mb 0.00 in0.0 mm 0.00 in0.0 mm 0.02 in0.5 mm
01:15 PM 48.1°F8.9°C 27.5°F-2.5°C 44% 9.8 mph W15.8 kmh W 13.5 mph21.7 kmh 29.87 in1011.5 mb 0.00 in0.0 mm 0.00 in0.0 mm 0.02 in0.5 mm
01:20 PM 48.7°F9.3°C 27.8°F-2.3°C 44% 11.2 mph NW18.0 kmh NW 13.5 mph21.7 kmh 29.87 in1011.5 mb 0.00 in0.0 mm 0.00 in0.0 mm 0.02 in0.5 mm
01:25 PM 48.7°F9.3°C 27.4°F-2.6°C 43% 11.8 mph WNW19.0 kmh WNW 17.1 mph27.5 kmh 29.87 in1011.5 mb 0.00 in0.0 mm 0.00 in0.0 mm 0.02 in0.5 mm
01:30 PM 47.7°F8.7°C 27.3°F-2.6°C 45% 8.7 mph NW14.0 kmh NW 13.5 mph21.7 kmh 29.87 in1011.5 mb 0.00 in0.0 mm 0.00 in0.0 mm 0.02 in0.5 mm
01:35 PM 46.8°F8.2°C 28.7°F-1.8°C 49% 10.8 mph W17.4 kmh W 16.1 mph25.9 kmh 29.88 in1011.9 mb 0.00 in0.0 mm 0.00 in0.0 mm 0.02 in0.5 mm
01:40 PM 46.4°F8.0°C 29.5°F-1.4°C 52% 10.0 mph NW16.1 kmh NW 13.5 mph21.7 kmh 29.88 in1011.9 mb 0.00 in0.0 mm 0.00 in0.0 mm 0.02 in0.5 mm
01:45 PM 47.2°F8.4°C 30.1°F-1.1°C 51% 11.3 mph NW18.2 kmh NW 15.0 mph24.1 kmh 29.88 in1011.9 mb 0.00 in0.0 mm 0.00 in0.0 mm 0.02 in0.5 mm
01:50 PM 46.9°F8.3°C 30.5°F-0.8°C 53% 10.6 mph WNW17.1 kmh WNW 18.6 mph29.9 kmh 29.89 in1012.2 mb 0.00 in0.0 mm 0.00 in0.0 mm 0.02 in0.5 mm
01:55 PM 46.7°F8.2°C 30.1°F-1.1°C 52% 13.0 mph WNW20.9 kmh WNW 19.1 mph30.7 kmh 29.89 in1012.2 mb 0.00 in0.0 mm 0.00 in0.0 mm 0.02 in0.5 mm
02:00 PM 46.1°F7.8°C 31.2°F-0.4°C 56% 11.0 mph WNW17.7 kmh WNW 17.6 mph28.3 kmh 29.90 in1012.5 mb 0.00 in0.0 mm 0.00 in0.0 mm 0.02 in0.5 mm
02:05 PM 44.6°F7.0°C 32.6°F0.3°C 62% 7.1 mph W11.4 kmh W 11.4 mph18.3 kmh 29.90 in1012.5 mb 0.00 in0.0 mm 0.00 in0.0 mm 0.02 in0.5 mm
02:10 PM 43.7°F6.5°C 34.9°F1.6°C 71% 6.3 mph ESE10.1 kmh ESE 7.3 mph11.7 kmh 29.91 in1012.9 mb 0.00 in0.0 mm 0.00 in0.0 mm 0.02 in0.5 mm
02:15 PM 44.1°F6.7°C 34.7°F1.5°C 69% 5.9 mph NNW9.5 kmh NNW 10.4 mph16.7 kmh 29.91 in1012.9 mb 0.00 in0.0 mm 0.00 in0.0 mm 0.02 in0.5 mm
02:20 PM 44.0°F6.7°C 34.0°F1.1°C 68% 8.1 mph WNW13.0 kmh WNW 13.0 mph20.9 kmh 29.91 in1012.9 mb 0.00 in0.0 mm 0.00 in0.0 mm 0.02 in0.5 mm
02:25 PM 44.5°F6.9°C 32.5°F0.3°C 63% 9.7 mph WNW15.6 kmh WNW 17.1 mph27.5 kmh 29.91 in1012.9 mb 0.00 in0.0 mm 0.00 in0.0 mm 0.02 in0.5 mm
02:30 PM 45.2°F7.3°C 31.3°F-0.4°C 58% 7.4 mph NW11.9 kmh NW 15.5 mph24.9 kmh 29.91 in1012.9 mb 0.00 in0.0 mm 0.00 in0.0 mm 0.02 in0.5 mm
02:35 PM 45.6°F7.6°C 30.9°F-0.6°C 56% 8.9 mph W14.3 kmh W 13.5 mph21.7 kmh 29.91 in1012.9 mb 0.00 in0.0 mm 0.00 in0.0 mm 0.02 in0.5 mm
02:40 PM 44.9°F7.2°C 31.9°F-0.1°C 60% 9.9 mph NW15.9 kmh NW 15.5 mph24.9 kmh 29.91 in1012.9 mb 0.00 in0.0 mm 0.00 in0.0 mm 0.02 in0.5 mm
02:45 PM 42.2°F5.7°C 34.2°F1.2°C 73% 10.1 mph W16.3 kmh W 20.7 mph33.3 kmh 29.95 in1014.2 mb 0.00 in0.0 mm 0.00 in0.0 mm 0.02 in0.5 mm
02:50 PM 40.4°F4.7°C 34.3°F1.3°C 79% 8.3 mph W13.4 kmh W 12.5 mph20.1 kmh 29.95 in1014.2 mb 0.00 in0.0 mm 0.00 in0.0 mm 0.02 in0.5 mm
02:55 PM 39.7°F4.3°C 33.9°F1.1°C 80% 8.1 mph W13.0 kmh W 16.6 mph26.7 kmh 29.95 in1014.2 mb 0.00 in0.0 mm 0.00 in0.0 mm 0.02 in0.5 mm
03:00 PM 39.7°F4.3°C 34.0°F1.1°C 80% 5.9 mph W9.5 kmh W 13.5 mph21.7 kmh 29.95 in1014.2 mb 0.00 in0.0 mm 0.00 in0.0 mm 0.02 in0.5 mm
03:05 PM 39.8°F4.3°C 33.6°F0.9°C 78% 6.6 mph NW10.6 kmh NW 9.9 mph15.9 kmh 29.95 in1014.2 mb 0.00 in0.0 mm 0.00 in0.0 mm 0.02 in0.5 mm
03:10 PM 40.7°F4.8°C 33.4°F0.8°C 75% 8.6 mph WNW13.8 kmh WNW 13.5 mph21.7 kmh 29.96 in1014.6 mb 0.00 in0.0 mm 0.00 in0.0 mm 0.02 in0.5 mm
03:15 PM 41.6°F5.3°C 32.9°F0.5°C 71% 7.9 mph WNW12.7 kmh WNW 13.5 mph21.7 kmh 29.96 in1014.6 mb 0.00 in0.0 mm 0.00 in0.0 mm 0.02 in0.5 mm
03:20 PM 42.2°F5.7°C 32.1°F0.1°C 67% 8.7 mph NW14.0 kmh NW 15.0 mph24.1 kmh 29.96 in1014.6 mb 0.00 in0.0 mm 0.00 in0.0 mm 0.02 in0.5 mm
03:25 PM 42.3°F5.7°C 31.4°F-0.3°C 65% 10.9 mph N17.5 kmh N 10.9 mph17.5 kmh 29.96 in1014.6 mb 0.00 in0.0 mm 0.00 in0.0 mm 0.02 in0.5 mm
03:30 PM 42.1°F5.6°C 31.3°F-0.4°C 65% 9.2 mph WNW14.8 kmh WNW 14.5 mph23.3 kmh 29.96 in1014.6 mb 0.00 in0.0 mm 0.00 in0.0 mm 0.02 in0.5 mm
03:35 PM -- -- - 9.9 mph NW15.9 kmh NW 9.9 mph15.9 kmh -- 0.00 in0.0 mm 0.00 in0.0 mm 0.02 in0.5 mm
03:40 PM 41.9°F5.5°C 30.9°F-0.6°C 65% 9.6 mph WNW15.4 kmh WNW 16.6 mph26.7 kmh 29.95 in1014.2 mb 0.00 in0.0 mm 0.00 in0.0 mm 0.02 in0.5 mm
03:45 PM 42.0°F5.6°C 29.9°F-1.2°C 62% 10.5 mph W16.9 kmh W 17.6 mph28.3 kmh 29.96 in1014.6 mb 0.00 in0.0 mm 0.00 in0.0 mm 0.02 in0.5 mm
03:50 PM 42.3°F5.7°C 29.8°F-1.2°C 61% 9.9 mph NW15.9 kmh NW 14.5 mph23.3 kmh 29.96 in1014.6 mb 0.00 in0.0 mm 0.00 in0.0 mm 0.02 in0.5 mm
03:55 PM 42.4°F5.8°C 29.9°F-1.2°C 61% 8.7 mph WNW14.0 kmh WNW 11.4 mph18.3 kmh 29.96 in1014.6 mb 0.00 in0.0 mm 0.00 in0.0 mm 0.02 in0.5 mm
04:00 PM 42.5°F5.8°C 29.7°F-1.3°C 60% 9.5 mph NW15.3 kmh NW 18.1 mph29.1 kmh 29.97 in1014.9 mb 0.00 in0.0 mm 0.00 in0.0 mm 0.02 in0.5 mm
04:05 PM 42.8°F6.0°C 29.9°F-1.2°C 60% 6.8 mph WNW10.9 kmh WNW 13.0 mph20.9 kmh 29.97 in1014.9 mb 0.00 in0.0 mm 0.00 in0.0 mm 0.02 in0.5 mm
04:10 PM 43.2°F6.2°C 29.7°F-1.3°C 59% 8.4 mph NW13.5 kmh NW 12.5 mph20.1 kmh 29.97 in1014.9 mb 0.00 in0.0 mm 0.00 in0.0 mm 0.02 in0.5 mm
04:15 PM 43.2°F6.2°C 28.5°F-1.9°C 56% 9.2 mph WNW14.8 kmh WNW 14.5 mph23.3 kmh 29.97 in1014.9 mb 0.00 in0.0 mm 0.00 in0.0 mm 0.02 in0.5 mm
04:20 PM 43.2°F6.2°C 28.6°F-1.9°C 56% 5.9 mph WNW9.5 kmh WNW 9.4 mph15.1 kmh 29.97 in1014.9 mb 0.00 in0.0 mm 0.00 in0.0 mm 0.02 in0.5 mm
04:25 PM 43.2°F6.2°C 27.9°F-2.3°C 54% 6.9 mph W11.1 kmh W 11.9 mph19.2 kmh 29.97 in1014.9 mb 0.00 in0.0 mm 0.00 in0.0 mm 0.02 in0.5 mm
04:30 PM 43.0°F6.1°C 28.6°F-1.9°C 56% 8.2 mph NW13.2 kmh NW 14.5 mph23.3 kmh 29.97 in1014.9 mb 0.00 in0.0 mm 0.00 in0.0 mm 0.02 in0.5 mm
04:35 PM 42.4°F5.8°C 27.7°F-2.4°C 56% 7.9 mph NW12.7 kmh NW 13.5 mph21.7 kmh 29.99 in1015.6 mb 0.00 in0.0 mm 0.00 in0.0 mm 0.02 in0.5 mm
04:40 PM 41.9°F5.5°C 26.1°F-3.3°C 53% 7.5 mph S12.1 kmh S 10.9 mph17.5 kmh 29.99 in1015.6 mb 0.00 in0.0 mm 0.00 in0.0 mm 0.02 in0.5 mm
04:45 PM 41.5°F5.3°C 25.3°F-3.7°C 52% 7.9 mph SE12.7 kmh SE 15.0 mph24.1 kmh 30.00 in1015.9 mb 0.00 in0.0 mm 0.00 in0.0 mm 0.02 in0.5 mm
04:50 PM 41.1°F5.1°C 24.9°F-3.9°C 52% 8.7 mph NW14.0 kmh NW 16.6 mph26.7 kmh 30.01 in1016.3 mb 0.00 in0.0 mm 0.00 in0.0 mm 0.02 in0.5 mm
04:55 PM 40.8°F4.9°C 24.9°F-3.9°C 53% 6.6 mph W10.6 kmh W 8.3 mph13.4 kmh 30.01 in1016.3 mb 0.00 in0.0 mm 0.00 in0.0 mm 0.02 in0.5 mm
05:00 PM 40.5°F4.7°C 25.3°F-3.7°C 54% 8.0 mph NW12.9 kmh NW 13.5 mph21.7 kmh 30.02 in1016.6 mb 0.00 in0.0 mm 0.00 in0.0 mm 0.02 in0.5 mm
05:05 PM 40.3°F4.6°C 25.5°F-3.6°C 55% 7.5 mph NW12.1 kmh NW 11.9 mph19.2 kmh 30.02 in1016.6 mb 0.00 in0.0 mm 0.00 in0.0 mm 0.02 in0.5 mm
05:10 PM 40.1°F4.5°C 25.3°F-3.7°C 55% 7.3 mph WNW11.7 kmh WNW 13.5 mph21.7 kmh 30.03 in1016.9 mb 0.00 in0.0 mm 0.00 in0.0 mm 0.02 in0.5 mm
05:15 PM 40.1°F4.5°C 25.2°F-3.8°C 55% 10.1 mph NW16.3 kmh NW 14.5 mph23.3 kmh 30.03 in1016.9 mb 0.00 in0.0 mm 0.00 in0.0 mm 0.02 in0.5 mm
05:20 PM 40.1°F4.5°C 25.2°F-3.8°C 55% 9.2 mph WNW14.8 kmh WNW 12.5 mph20.1 kmh 30.03 in1016.9 mb 0.00 in0.0 mm 0.00 in0.0 mm 0.02 in0.5 mm
05:25 PM 39.9°F4.4°C 25.1°F-3.8°C 55% 9.5 mph W15.3 kmh W 13.5 mph21.7 kmh 30.04 in1017.3 mb 0.00 in0.0 mm 0.00 in0.0 mm 0.02 in0.5 mm
05:30 PM 39.7°F4.3°C 24.9°F-3.9°C 55% 8.0 mph WNW12.9 kmh WNW 13.5 mph21.7 kmh 30.04 in1017.3 mb 0.00 in0.0 mm 0.00 in0.0 mm 0.02 in0.5 mm
05:35 PM 39.6°F4.2°C 24.7°F-4.1°C 55% 9.6 mph W15.4 kmh W 14.5 mph23.3 kmh 30.05 in1017.6 mb 0.00 in0.0 mm 0.00 in0.0 mm 0.02 in0.5 mm
05:40 PM 39.6°F4.2°C 24.2°F-4.3°C 54% 11.9 mph WNW19.2 kmh WNW 18.6 mph29.9 kmh 30.05 in1017.6 mb 0.00 in0.0 mm 0.00 in0.0 mm 0.02 in0.5 mm
05:45 PM 39.6°F4.2°C 24.0°F-4.4°C 53% 9.9 mph WNW15.9 kmh WNW 14.0 mph22.5 kmh 30.05 in1017.6 mb 0.00 in0.0 mm 0.00 in0.0 mm 0.02 in0.5 mm
05:50 PM 39.5°F4.2°C 24.5°F-4.2°C 55% 8.1 mph WNW13.0 kmh WNW 15.0 mph24.1 kmh 30.05 in1017.6 mb 0.00 in0.0 mm 0.00 in0.0 mm 0.02 in0.5 mm
05:55 PM 39.4°F4.1°C 24.6°F-4.1°C 55% 9.5 mph WNW15.3 kmh WNW 14.5 mph23.3 kmh 30.05 in1017.6 mb 0.00 in0.0 mm 0.00 in0.0 mm 0.02 in0.5 mm
06:00 PM 39.4°F4.1°C 24.2°F-4.3°C 54% 10.7 mph WNW17.2 kmh WNW 15.0 mph24.1 kmh 30.06 in1017.9 mb 0.00 in0.0 mm 0.00 in0.0 mm 0.02 in0.5 mm
06:05 PM 39.4°F4.1°C 23.9°F-4.5°C 53% 11.4 mph W18.3 kmh W 16.6 mph26.7 kmh 30.06 in1017.9 mb 0.00 in0.0 mm 0.00 in0.0 mm 0.02 in0.5 mm
06:10 PM 39.3°F4.1°C 24.1°F-4.4°C 54% 7.8 mph WNW12.6 kmh WNW 11.4 mph18.3 kmh 30.06 in1017.9 mb 0.00 in0.0 mm 0.00 in0.0 mm 0.02 in0.5 mm
06:15 PM 39.2°F4.0°C 23.7°F-4.6°C 53% 10.4 mph NW16.7 kmh NW 15.5 mph24.9 kmh 30.06 in1017.9 mb 0.00 in0.0 mm 0.00 in0.0 mm 0.02 in0.5 mm
06:20 PM 39.2°F4.0°C 23.1°F-4.9°C 52% 8.6 mph WNW13.8 kmh WNW 13.0 mph20.9 kmh 30.06 in1017.9 mb 0.00 in0.0 mm 0.00 in0.0 mm 0.02 in0.5 mm
06:25 PM 39.0°F3.9°C 23.2°F-4.9°C 53% 9.9 mph WNW15.9 kmh WNW 14.0 mph22.5 kmh 30.06 in1017.9 mb 0.00 in0.0 mm 0.00 in0.0 mm 0.02 in0.5 mm
06:30 PM 39.0°F3.9°C 23.6°F-4.7°C 54% 9.9 mph NW15.9 kmh NW 14.0 mph22.5 kmh 30.06 in1017.9 mb 0.00 in0.0 mm 0.00 in0.0 mm 0.02 in0.5 mm
06:35 PM 38.9°F3.8°C 23.9°F-4.5°C 54% 7.1 mph NW11.4 kmh NW 10.4 mph16.7 kmh 30.07 in1018.3 mb 0.00 in0.0 mm 0.00 in0.0 mm 0.02 in0.5 mm
06:40 PM 38.8°F3.8°C 23.7°F-4.6°C 54% 6.9 mph NW11.1 kmh NW 9.9 mph15.9 kmh 30.07 in1018.3 mb 0.00 in0.0 mm 0.00 in0.0 mm 0.02 in0.5 mm
06:45 PM 38.6°F3.7°C 23.6°F-4.7°C 54% 7.0 mph NE11.3 kmh NE 11.9 mph19.2 kmh 30.08 in1018.6 mb 0.00 in0.0 mm 0.00 in0.0 mm 0.02 in0.5 mm
06:50 PM 38.3°F3.5°C 23.8°F-4.6°C 56% 5.0 mph W8.0 kmh W 8.3 mph13.4 kmh 30.09 in1019.0 mb 0.00 in0.0 mm 0.00 in0.0 mm 0.02 in0.5 mm
06:55 PM 38.1°F3.4°C 23.9°F-4.5°C 56% 8.2 mph W13.2 kmh W 15.0 mph24.1 kmh 30.09 in1019.0 mb 0.00 in0.0 mm 0.00 in0.0 mm 0.02 in0.5 mm
07:00 PM 38.0°F3.3°C 24.2°F-4.3°C 57% 4.3 mph W6.9 kmh W 7.8 mph12.6 kmh 30.09 in1019.0 mb 0.00 in0.0 mm 0.00 in0.0 mm 0.02 in0.5 mm
07:05 PM 37.8°F3.2°C 24.0°F-4.4°C 57% 3.7 mph NW6.0 kmh NW 7.3 mph11.7 kmh 30.09 in1019.0 mb 0.00 in0.0 mm 0.00 in0.0 mm 0.02 in0.5 mm
07:10 PM 37.7°F3.2°C 23.4°F-4.8°C 56% 7.3 mph NW11.7 kmh NW 11.9 mph19.2 kmh 30.08 in1018.6 mb 0.00 in0.0 mm 0.00 in0.0 mm 0.02 in0.5 mm
07:15 PM 37.8°F3.2°C 23.1°F-4.9°C 55% 5.9 mph NW9.5 kmh NW 9.4 mph15.1 kmh 30.08 in1018.6 mb 0.00 in0.0 mm 0.00 in0.0 mm 0.02 in0.5 mm
07:20 PM 37.8°F3.2°C 23.1°F-4.9°C 55% 7.0 mph WNW11.3 kmh WNW 9.4 mph15.1 kmh 30.09 in1019.0 mb 0.00 in0.0 mm 0.00 in0.0 mm 0.02 in0.5 mm
07:25 PM 37.8°F3.2°C 23.1°F-4.9°C 55% 6.1 mph WSW9.8 kmh WSW 10.9 mph17.5 kmh 30.09 in1019.0 mb 0.00 in0.0 mm 0.00 in0.0 mm 0.02 in0.5 mm
07:30 PM 37.8°F3.2°C 23.1°F-4.9°C 55% 5.7 mph N9.2 kmh N 8.3 mph13.4 kmh 30.09 in1019.0 mb 0.00 in0.0 mm 0.00 in0.0 mm 0.02 in0.5 mm
07:35 PM 37.8°F3.2°C 23.1°F-4.9°C 55% 6.6 mph NW10.6 kmh NW 14.5 mph23.3 kmh 30.09 in1019.0 mb 0.00 in0.0 mm 0.00 in0.0 mm 0.02 in0.5 mm
07:40 PM 37.8°F3.2°C 23.1°F-4.9°C 55% 7.5 mph N12.1 kmh N 9.9 mph15.9 kmh 30.09 in1019.0 mb 0.00 in0.0 mm 0.00 in0.0 mm 0.02 in0.5 mm
07:45 PM 37.7°F3.2°C 22.2°F-5.4°C 53% 9.9 mph W15.9 kmh W 13.5 mph21.7 kmh 30.10 in1019.3 mb 0.00 in0.0 mm 0.00 in0.0 mm 0.02 in0.5 mm
07:50 PM 37.7°F3.2°C 21.6°F-5.8°C 52% 8.4 mph WNW13.5 kmh WNW 11.9 mph19.2 kmh 30.11 in1019.6 mb 0.00 in0.0 mm 0.00 in0.0 mm 0.02 in0.5 mm
07:55 PM 37.6°F3.1°C 21.1°F-6.1°C 51% 12.2 mph WNW19.6 kmh WNW 19.1 mph30.7 kmh 30.11 in1019.6 mb 0.00 in0.0 mm 0.00 in0.0 mm 0.02 in0.5 mm
08:00 PM 37.6°F3.1°C 21.1°F-6.1°C 51% 6.7 mph NNW10.8 kmh NNW 9.9 mph15.9 kmh 30.10 in1019.3 mb 0.00 in0.0 mm 0.00 in0.0 mm 0.02 in0.5 mm
08:05 PM 37.4°F3.0°C 20.9°F-6.2°C 51% 6.6 mph W10.6 kmh W 9.4 mph15.1 kmh 30.10 in1019.3 mb 0.00 in0.0 mm 0.00 in0.0 mm 0.02 in0.5 mm
08:10 PM 37.2°F2.9°C 20.8°F-6.2°C 51% 8.1 mph WNW13.0 kmh WNW 13.0 mph20.9 kmh 30.10 in1019.3 mb 0.00 in0.0 mm 0.00 in0.0 mm 0.02 in0.5 mm
08:15 PM 37.2°F2.9°C 21.2°F-6.0°C 52% 8.3 mph W13.4 kmh W 15.0 mph24.1 kmh 30.10 in1019.3 mb 0.00 in0.0 mm 0.00 in0.0 mm 0.02 in0.5 mm
08:20 PM 37.1°F2.8°C 21.6°F-5.8°C 53% 5.7 mph WNW9.2 kmh WNW 10.4 mph16.7 kmh 30.10 in1019.3 mb 0.00 in0.0 mm 0.00 in0.0 mm 0.02 in0.5 mm
08:25 PM 36.9°F2.7°C 21.8°F-5.7°C 54% 6.1 mph W9.8 kmh W 10.9 mph17.5 kmh 30.10 in1019.3 mb 0.00 in0.0 mm 0.00 in0.0 mm 0.02 in0.5 mm
08:30 PM 36.9°F2.7°C 21.8°F-5.7°C 54% 7.8 mph NW12.6 kmh NW 12.5 mph20.1 kmh 30.10 in1019.3 mb 0.00 in0.0 mm 0.00 in0.0 mm 0.02 in0.5 mm
08:35 PM 36.9°F2.7°C 21.8°F-5.7°C 54% 5.7 mph NW9.2 kmh NW 10.9 mph17.5 kmh 30.10 in1019.3 mb 0.00 in0.0 mm 0.00 in0.0 mm 0.02 in0.5 mm
08:40 PM 36.9°F2.7°C 21.8°F-5.7°C 54% 5.7 mph WNW9.2 kmh WNW 10.9 mph17.5 kmh 30.10 in1019.3 mb 0.00 in0.0 mm 0.00 in0.0 mm 0.02 in0.5 mm
08:45 PM 36.9°F2.7°C 21.4°F-5.9°C 53% 6.7 mph WSW10.8 kmh WSW 12.5 mph20.1 kmh 30.11 in1019.6 mb 0.00 in0.0 mm 0.00 in0.0 mm 0.02 in0.5 mm
08:50 PM 36.7°F2.6°C 21.1°F-6.1°C 53% 7.8 mph W12.6 kmh W 15.0 mph24.1 kmh 30.11 in1019.6 mb 0.00 in0.0 mm 0.00 in0.0 mm 0.02 in0.5 mm
08:55 PM 36.7°F2.6°C 20.8°F-6.2°C 52% 6.4 mph WSW10.3 kmh WSW 9.9 mph15.9 kmh 30.11 in1019.6 mb 0.00 in0.0 mm 0.00 in0.0 mm 0.02 in0.5 mm
09:00 PM 36.5°F2.5°C 20.6°F-6.3°C 52% 6.9 mph WNW11.1 kmh WNW 12.5 mph20.1 kmh 30.12 in1020.0 mb 0.00 in0.0 mm 0.00 in0.0 mm 0.02 in0.5 mm
09:05 PM 36.5°F2.5°C 20.6°F-6.3°C 52% 8.4 mph WNW13.5 kmh WNW 14.0 mph22.5 kmh 30.12 in1020.0 mb 0.00 in0.0 mm 0.00 in0.0 mm 0.02 in0.5 mm
09:10 PM 36.4°F2.4°C 20.5°F-6.4°C 52% 9.6 mph N15.4 kmh N 15.0 mph24.1 kmh 30.13 in1020.3 mb 0.00 in0.0 mm 0.00 in0.0 mm 0.02 in0.5 mm
09:15 PM 36.3°F2.4°C 20.4°F-6.4°C 52% 5.4 mph SE8.7 kmh SE 5.8 mph9.3 kmh 30.13 in1020.3 mb 0.00 in0.0 mm 0.00 in0.0 mm 0.02 in0.5 mm
09:20 PM 36.1°F2.3°C 20.6°F-6.3°C 53% 8.9 mph NNW14.3 kmh NNW 11.9 mph19.2 kmh 30.13 in1020.3 mb 0.00 in0.0 mm 0.00 in0.0 mm 0.02 in0.5 mm
09:25 PM 36.0°F2.2°C 20.6°F-6.3°C 53% 7.7 mph NE12.4 kmh NE 14.5 mph23.3 kmh 30.13 in1020.3 mb 0.00 in0.0 mm 0.00 in0.0 mm 0.02 in0.5 mm
09:30 PM 36.0°F2.2°C 20.5°F-6.4°C 53% 7.5 mph W12.1 kmh W 12.5 mph20.1 kmh 30.13 in1020.3 mb 0.00 in0.0 mm 0.00 in0.0 mm 0.02 in0.5 mm
09:35 PM 35.9°F2.2°C 20.7°F-6.3°C 54% 5.6 mph NW9.0 kmh NW 8.9 mph14.3 kmh 30.14 in1020.7 mb 0.00 in0.0 mm 0.00 in0.0 mm 0.02 in0.5 mm
09:40 PM 35.7°F2.1°C 20.7°F-6.3°C 54% 6.5 mph W10.5 kmh W 10.9 mph17.5 kmh 30.14 in1020.7 mb 0.00 in0.0 mm 0.00 in0.0 mm 0.02 in0.5 mm
09:45 PM 35.6°F2.0°C 20.6°F-6.3°C 54% 6.2 mph WSW10.0 kmh WSW 11.9 mph19.2 kmh 30.14 in1020.7 mb 0.00 in0.0 mm 0.00 in0.0 mm 0.02 in0.5 mm
09:50 PM 35.6°F2.0°C 20.6°F-6.3°C 54% 6.5 mph W10.5 kmh W 11.4 mph18.3 kmh 30.15 in1021.0 mb 0.00 in0.0 mm 0.00 in0.0 mm 0.02 in0.5 mm
09:55 PM 35.6°F2.0°C 20.6°F-6.3°C 54% 4.9 mph WNW7.9 kmh WNW 8.3 mph13.4 kmh 30.15 in1021.0 mb 0.00 in0.0 mm 0.00 in0.0 mm 0.02 in0.5 mm
10:00 PM 35.6°F2.0°C 20.6°F-6.3°C 54% 6.9 mph WNW11.1 kmh WNW 14.0 mph22.5 kmh 30.15 in1021.0 mb 0.00 in0.0 mm 0.00 in0.0 mm 0.02 in0.5 mm
10:05 PM 35.6°F2.0°C 20.6°F-6.3°C 54% 7.6 mph NNW12.2 kmh NNW 14.5 mph23.3 kmh 30.15 in1021.0 mb 0.00 in0.0 mm 0.00 in0.0 mm 0.02 in0.5 mm
10:10 PM 35.6°F2.0°C 20.6°F-6.3°C 54% 6.3 mph W10.1 kmh W 8.3 mph13.4 kmh 30.16 in1021.3 mb 0.00 in0.0 mm 0.00 in0.0 mm 0.02 in0.5 mm
10:15 PM 35.5°F1.9°C 20.5°F-6.4°C 54% 6.2 mph NW10.0 kmh NW 10.9 mph17.5 kmh 30.16 in1021.3 mb 0.00 in0.0 mm 0.00 in0.0 mm 0.02 in0.5 mm
10:20 PM 35.4°F1.9°C 20.0°F-6.7°C 53% 6.6 mph SE10.6 kmh SE 9.9 mph15.9 kmh 30.16 in1021.3 mb 0.00 in0.0 mm 0.00 in0.0 mm 0.02 in0.5 mm
10:25 PM 35.4°F1.9°C 20.0°F-6.7°C 53% 7.2 mph N11.6 kmh N 11.4 mph18.3 kmh 30.15 in1021.0 mb 0.00 in0.0 mm 0.00 in0.0 mm 0.02 in0.5 mm
10:30 PM 35.3°F1.8°C 19.9°F-6.7°C 53% 5.8 mph E9.3 kmh E 10.4 mph16.7 kmh 30.15 in1021.0 mb 0.00 in0.0 mm 0.00 in0.0 mm 0.02 in0.5 mm
10:35 PM 35.2°F1.8°C 20.0°F-6.7°C 53% 7.2 mph WNW11.6 kmh WNW 10.9 mph17.5 kmh 30.17 in1021.7 mb 0.00 in0.0 mm 0.00 in0.0 mm 0.02 in0.5 mm
10:40 PM 35.1°F1.7°C 20.1°F-6.6°C 54% 7.5 mph WNW12.1 kmh WNW 10.9 mph17.5 kmh 30.17 in1021.7 mb 0.00 in0.0 mm 0.00 in0.0 mm 0.02 in0.5 mm
10:45 PM 35.1°F1.7°C 20.1°F-6.6°C 54% 5.9 mph WSW9.5 kmh WSW 10.4 mph16.7 kmh 30.17 in1021.7 mb 0.00 in0.0 mm 0.00 in0.0 mm 0.02 in0.5 mm
10:50 PM 34.9°F1.6°C 20.4°F-6.4°C 55% 5.7 mph W9.2 kmh W 8.9 mph14.3 kmh 30.17 in1021.7 mb 0.00 in0.0 mm 0.00 in0.0 mm 0.02 in0.5 mm
10:55 PM 34.9°F1.6°C 20.3°F-6.5°C 55% 7.2 mph N11.6 kmh N 14.0 mph22.5 kmh 30.17 in1021.7 mb 0.00 in0.0 mm 0.00 in0.0 mm 0.02 in0.5 mm
11:00 PM 34.9°F1.6°C 19.9°F-6.7°C 54% 5.7 mph WNW9.2 kmh WNW 11.9 mph19.2 kmh 30.17 in1021.7 mb 0.00 in0.0 mm 0.00 in0.0 mm 0.02 in0.5 mm
11:05 PM 34.7°F1.5°C 19.8°F-6.8°C 54% 5.4 mph NW8.7 kmh NW 8.9 mph14.3 kmh 30.17 in1021.7 mb 0.00 in0.0 mm 0.00 in0.0 mm 0.02 in0.5 mm
11:10 PM 34.7°F1.5°C 19.8°F-6.8°C 54% 5.5 mph WSW8.9 kmh WSW 8.9 mph14.3 kmh 30.17 in1021.7 mb 0.00 in0.0 mm 0.00 in0.0 mm 0.02 in0.5 mm
11:15 PM 34.6°F1.4°C 19.9°F-6.7°C 55% 5.3 mph NW8.5 kmh NW 8.9 mph14.3 kmh 30.17 in1021.7 mb 0.00 in0.0 mm 0.00 in0.0 mm 0.02 in0.5 mm
11:20 PM 34.5°F1.4°C 20.1°F-6.6°C 55% 7.2 mph W11.6 kmh W 14.0 mph22.5 kmh 30.17 in1021.7 mb 0.00 in0.0 mm 0.00 in0.0 mm 0.02 in0.5 mm
11:25 PM 34.4°F1.3°C 20.3°F-6.5°C 56% 6.1 mph W9.8 kmh W 10.9 mph17.5 kmh 30.18 in1022.0 mb 0.00 in0.0 mm 0.00 in0.0 mm 0.02 in0.5 mm
11:30 PM 34.3°F1.3°C 20.3°F-6.5°C 56% 6.6 mph W10.6 kmh W 10.9 mph17.5 kmh 30.18 in1022.0 mb 0.00 in0.0 mm 0.00 in0.0 mm 0.02 in0.5 mm
11:35 PM 34.3°F1.3°C 19.9°F-6.7°C 55% 8.5 mph NW13.7 kmh NW 14.0 mph22.5 kmh 30.18 in1022.0 mb 0.00 in0.0 mm 0.00 in0.0 mm 0.02 in0.5 mm
11:40 PM 34.3°F1.3°C 19.8°F-6.8°C 55% 6.6 mph WSW10.6 kmh WSW 13.0 mph20.9 kmh 30.18 in1022.0 mb 0.00 in0.0 mm 0.00 in0.0 mm 0.02 in0.5 mm
11:45 PM 34.2°F1.2°C 19.7°F-6.8°C 55% 6.7 mph W10.8 kmh W 12.5 mph20.1 kmh 30.18 in1022.0 mb 0.00 in0.0 mm 0.00 in0.0 mm 0.02 in0.5 mm
11:50 PM 34.2°F1.2°C 19.7°F-6.8°C 55% 8.2 mph WNW13.2 kmh WNW 13.5 mph21.7 kmh 30.18 in1022.0 mb 0.00 in0.0 mm 0.00 in0.0 mm 0.02 in0.5 mm
11:55 PM 34.2°F1.2°C 19.5°F-6.9°C 54% 7.9 mph W12.7 kmh W 12.5 mph20.1 kmh 30.18 in1022.0 mb 0.00 in0.0 mm 0.00 in0.0 mm 0.02 in0.5 mm